createdAt,value
2023-05-01T00:01:02.849Z,75680.91
2023-05-01T00:02:36.282Z,75682.91
2023-05-01T00:04:09.518Z,75684.88
2023-05-01T00:05:43.012Z,75694.75
2023-05-01T00:07:16.660Z,75698.72
2023-05-01T00:08:49.585Z,75700.69
2023-05-01T00:10:22.577Z,75710.56
2023-05-01T00:11:55.578Z,75708.59
2023-05-01T00:13:28.605Z,75710.56
2023-05-01T00:15:01.381Z,75708.59
2023-05-01T00:16:36.675Z,75706.63
2023-05-01T00:18:09.767Z,75710.56
2023-05-01T00:19:42.818Z,75708.59
2023-05-01T00:21:15.735Z,75706.63
2023-05-01T00:22:48.844Z,75706.63
2023-05-01T00:24:21.999Z,75702.66
2023-05-01T00:25:55.121Z,75704.63
2023-05-01T00:27:27.959Z,75702.66
2023-05-01T00:29:01.199Z,75706.63
2023-05-01T00:30:34.838Z,75704.63
2023-05-01T00:32:08.125Z,75706.63
2023-05-01T00:33:41.355Z,75700.69
2023-05-01T00:35:14.445Z,75706.63
2023-05-01T00:36:49.337Z,75700.69
2023-05-01T00:38:24.439Z,75702.66
2023-05-01T00:39:57.929Z,75696.72
2023-05-01T00:41:31.192Z,75704.63
2023-05-01T00:43:04.105Z,75704.63
2023-05-01T00:44:36.830Z,75694.75
2023-05-01T00:46:11.062Z,75714.53
2023-05-01T00:47:44.395Z,75708.59
2023-05-01T00:49:18.000Z,75716.50
2023-05-01T00:50:51.131Z,75714.53
2023-05-01T00:52:25.353Z,75722.44
2023-05-01T00:54:01.931Z,75728.38
2023-05-01T00:55:36.197Z,75756.03
2023-05-01T00:57:09.834Z,75742.19
2023-05-01T00:58:43.095Z,75742.19
2023-05-01T01:00:19.673Z,75738.25
2023-05-01T01:01:54.948Z,75734.28
2023-05-01T01:03:29.098Z,75724.41
2023-05-01T01:05:01.879Z,75714.53
2023-05-01T01:06:59.194Z,75708.59
2023-05-01T01:08:55.754Z,75694.75
2023-05-01T01:10:43.977Z,75673.00
2023-05-01T01:12:36.006Z,75655.22
2023-05-01T01:14:27.873Z,75625.56
2023-05-01T01:16:14.165Z,75605.78
2023-05-01T01:18:10.224Z,75595.91
2023-05-01T01:20:24.601Z,75556.38
2023-05-01T01:22:23.379Z,75540.56
2023-05-01T01:24:34.409Z,75503.00
2023-05-01T01:26:44.422Z,75485.19
2023-05-01T01:29:14.331Z,75471.38
2023-05-01T01:31:00.442Z,75465.44
2023-05-01T01:32:42.391Z,75449.63
2023-05-01T01:34:33.906Z,75414.03
2023-05-01T01:36:16.521Z,75425.91
2023-05-01T01:38:00.433Z,75386.38
2023-05-01T01:39:54.872Z,75392.28
2023-05-01T01:41:34.138Z,75402.19
2023-05-01T01:43:08.824Z,75427.88
2023-05-01T01:44:53.023Z,75398.22
2023-05-01T01:46:28.001Z,75368.56
2023-05-01T01:48:03.620Z,75331.00
2023-05-01T01:49:42.124Z,75311.25
2023-05-01T01:51:18.588Z,75303.34
2023-05-01T01:52:53.817Z,75283.56
2023-05-01T01:54:37.071Z,75287.53
2023-05-01T01:56:11.071Z,75279.63
2023-05-01T01:57:46.961Z,75248.00
2023-05-01T01:59:23.713Z,75208.47
2023-05-01T02:00:59.050Z,75176.81
2023-05-01T02:02:32.667Z,75135.31
2023-05-01T02:04:07.550Z,75119.50
2023-05-01T02:05:44.085Z,75050.31
2023-05-01T02:07:19.706Z,75048.34
2023-05-01T02:08:54.435Z,75022.66
2023-05-01T02:10:29.283Z,74989.03
2023-05-01T02:12:06.005Z,74981.13
2023-05-01T02:13:39.742Z,74994.97
2023-05-01T02:15:15.944Z,74941.59
2023-05-01T02:16:50.707Z,74882.31
2023-05-01T02:18:24.657Z,74872.44
2023-05-01T02:19:58.382Z,74801.28
2023-05-01T02:21:33.406Z,74825.00
2023-05-01T02:23:08.133Z,74769.66
2023-05-01T02:24:44.551Z,74730.13
2023-05-01T02:26:22.280Z,74745.94
2023-05-01T02:28:02.485Z,74773.59
2023-05-01T02:29:35.899Z,74724.19
2023-05-01T02:31:10.006Z,74740.00
2023-05-01T02:32:43.480Z,74676.75
2023-05-01T02:34:17.145Z,74696.53
2023-05-01T02:35:50.216Z,74710.34
2023-05-01T02:37:24.801Z,74682.69
2023-05-01T02:38:58.561Z,74629.31
2023-05-01T02:40:33.267Z,74564.09
2023-05-01T02:42:09.896Z,74490.97
2023-05-01T02:43:46.779Z,74459.34
2023-05-01T02:45:23.081Z,74534.44
2023-05-01T02:46:57.703Z,74469.22
2023-05-01T02:48:32.762Z,74437.63
2023-05-01T02:50:08.244Z,74374.38
2023-05-01T02:51:41.997Z,74352.63
2023-05-01T02:53:16.160Z,74465.28
2023-05-01T02:54:55.668Z,74404.00
2023-05-01T02:56:29.683Z,74435.63
2023-05-01T02:58:03.097Z,74407.97
2023-05-01T02:59:36.320Z,74358.56
2023-05-01T03:01:09.824Z,74380.28
2023-05-01T03:02:42.948Z,74342.75
2023-05-01T03:04:16.197Z,74328.91
2023-05-01T03:05:49.241Z,74281.47
2023-05-01T03:07:23.208Z,74232.06
2023-05-01T03:08:56.349Z,74228.13
2023-05-01T03:10:29.640Z,74222.19
2023-05-01T03:12:03.208Z,74182.69
2023-05-01T03:13:36.312Z,74164.88
2023-05-01T03:15:09.800Z,74287.41
2023-05-01T03:16:43.156Z,74206.38
2023-05-01T03:18:16.121Z,74188.59
2023-05-01T03:19:49.885Z,74180.69
2023-05-01T03:21:22.936Z,74117.47
2023-05-01T03:22:57.108Z,74151.06
2023-05-01T03:24:30.081Z,74115.47
2023-05-01T03:26:02.883Z,74083.88
2023-05-01T03:27:36.169Z,73977.16
2023-05-01T03:29:10.315Z,74079.91
2023-05-01T03:30:44.871Z,74048.28
2023-05-01T03:32:18.447Z,73967.28
2023-05-01T03:33:53.768Z,74081.88
2023-05-01T03:35:27.147Z,74020.63
2023-05-01T03:37:00.900Z,73975.19
2023-05-01T03:38:34.059Z,74107.56
2023-05-01T03:40:16.062Z,74028.53
2023-05-01T03:42:07.712Z,74143.16
2023-05-01T03:43:46.618Z,74149.06
2023-05-01T03:45:49.095Z,74079.91
2023-05-01T03:47:22.991Z,74030.50
2023-05-01T03:48:56.111Z,74068.06
2023-05-01T03:50:29.494Z,74121.41
2023-05-01T03:52:02.486Z,74054.22
2023-05-01T03:53:37.200Z,74042.38
2023-05-01T03:55:12.576Z,73983.09
2023-05-01T03:56:49.084Z,74113.50
2023-05-01T03:58:23.827Z,73935.66
2023-05-01T03:59:57.787Z,73900.09
2023-05-01T04:01:33.786Z,73929.72
2023-05-01T04:03:07.106Z,74087.81
2023-05-01T04:04:42.239Z,74000.88
2023-05-01T04:06:17.215Z,74010.75
2023-05-01T04:07:50.698Z,73844.75
2023-05-01T04:09:23.637Z,73743.97
2023-05-01T04:10:56.625Z,73896.13
2023-05-01T04:12:30.004Z,73809.19
2023-05-01T04:14:02.946Z,73718.28
2023-05-01T04:15:35.865Z,73682.72
2023-05-01T04:17:09.087Z,73694.59
2023-05-01T04:18:43.728Z,73631.34
2023-05-01T04:20:17.326Z,73530.56
2023-05-01T04:21:50.140Z,73540.47
2023-05-01T04:23:24.785Z,73682.72
2023-05-01T04:25:01.320Z,73591.84
2023-05-01T04:26:35.998Z,73710.38
2023-05-01T04:28:12.478Z,73641.22
2023-05-01T04:29:46.152Z,73601.72
2023-05-01T04:31:28.398Z,73617.53
2023-05-01T04:33:02.110Z,73583.94
2023-05-01T04:34:35.816Z,73500.94
2023-05-01T04:36:08.919Z,73491.06
2023-05-01T04:37:42.571Z,73554.28
2023-05-01T04:39:16.201Z,73603.69
2023-05-01T04:40:49.225Z,73489.09
2023-05-01T04:42:22.201Z,73639.25
2023-05-01T04:43:55.717Z,73593.81
2023-05-01T04:45:28.947Z,73708.41
2023-05-01T04:47:03.371Z,73823.03
2023-05-01T04:48:37.026Z,73682.72
2023-05-01T04:50:10.842Z,73797.34
2023-05-01T04:51:44.216Z,73724.22
2023-05-01T04:53:20.531Z,73759.78
2023-05-01T04:54:53.802Z,73627.41
2023-05-01T04:56:29.687Z,73653.09
2023-05-01T04:58:06.419Z,73548.38
2023-05-01T04:59:41.931Z,73619.50
2023-05-01T05:01:16.193Z,73439.69
2023-05-01T05:02:49.407Z,73433.75
2023-05-01T05:04:22.401Z,73510.81
2023-05-01T05:05:56.672Z,73643.19
2023-05-01T05:07:30.598Z,73591.84
2023-05-01T05:09:22.126Z,73562.19
2023-05-01T05:11:00.192Z,73489.09
2023-05-01T05:12:53.216Z,73451.53
2023-05-01T05:14:26.666Z,73439.69
2023-05-01T05:16:00.161Z,73366.59
2023-05-01T05:17:33.789Z,73421.91
2023-05-01T05:19:06.861Z,73546.38
2023-05-01T05:20:44.175Z,73512.78
2023-05-01T05:22:17.406Z,73386.34
2023-05-01T05:24:10.270Z,73477.22
2023-05-01T05:25:43.601Z,73574.03
2023-05-01T05:27:16.831Z,73386.34
2023-05-01T05:28:51.344Z,73354.72
2023-05-01T05:30:24.304Z,73252.00
2023-05-01T05:32:00.102Z,73287.56
2023-05-01T05:33:33.535Z,73362.63
2023-05-01T05:35:07.473Z,73473.28
2023-05-01T05:36:40.407Z,73394.25
2023-05-01T05:38:14.698Z,73329.03
2023-05-01T05:39:50.770Z,73500.94
2023-05-01T05:41:23.996Z,73457.47
2023-05-01T05:43:01.450Z,73449.56
2023-05-01T05:44:36.385Z,73479.22
2023-05-01T05:46:09.896Z,73445.63
2023-05-01T05:47:43.904Z,73524.66
2023-05-01T05:49:17.258Z,73502.91
2023-05-01T05:50:52.768Z,73552.31
2023-05-01T05:52:27.684Z,73576.03
2023-05-01T05:54:01.361Z,73745.94
2023-05-01T05:55:36.102Z,73726.19
2023-05-01T05:57:10.668Z,73728.16
2023-05-01T05:58:49.248Z,73712.38
2023-05-01T06:00:22.901Z,73615.53
2023-05-01T06:01:57.082Z,73615.53
2023-05-01T06:03:30.427Z,73489.09
2023-05-01T06:05:08.009Z,73635.31
2023-05-01T06:06:41.608Z,73591.84
2023-05-01T06:08:15.492Z,73698.53
2023-05-01T06:09:48.448Z,73787.44
2023-05-01T06:11:22.347Z,73643.19
2023-05-01T06:13:01.334Z,73655.06
2023-05-01T06:14:44.143Z,73769.66
2023-05-01T06:16:17.441Z,73603.69
2023-05-01T06:17:51.307Z,73615.53
2023-05-01T06:19:24.398Z,73694.59
2023-05-01T06:21:02.887Z,73710.38
2023-05-01T06:22:35.820Z,73664.94
2023-05-01T06:24:17.243Z,73603.69
2023-05-01T06:25:55.373Z,73698.53
2023-05-01T06:27:28.312Z,73777.56
2023-05-01T06:29:01.767Z,73880.31
2023-05-01T06:30:35.412Z,73896.13
2023-05-01T06:32:08.666Z,73904.03
2023-05-01T06:33:41.670Z,73864.50
2023-05-01T06:35:34.903Z,73854.63
2023-05-01T06:37:08.110Z,73882.31
2023-05-01T06:38:49.095Z,73896.13
2023-05-01T06:40:22.214Z,73953.44
2023-05-01T06:41:55.170Z,73991.00
2023-05-01T06:43:37.543Z,73886.25
2023-05-01T06:45:10.600Z,73789.44
2023-05-01T06:46:43.600Z,73759.78
2023-05-01T06:48:16.629Z,73904.03
2023-05-01T06:49:49.828Z,73880.31
2023-05-01T06:51:23.000Z,73884.28
2023-05-01T06:52:55.965Z,73935.66
2023-05-01T06:54:29.256Z,73994.94
2023-05-01T06:56:03.146Z,74006.78
2023-05-01T06:57:38.134Z,73998.88
2023-05-01T06:59:11.291Z,73884.28
2023-05-01T07:00:50.860Z,73929.72
2023-05-01T07:02:24.568Z,73915.91
2023-05-01T07:04:00.757Z,73828.94
2023-05-01T07:05:34.812Z,73876.38
2023-05-01T07:07:07.730Z,73925.78
2023-05-01T07:08:40.901Z,73911.94
2023-05-01T07:10:15.038Z,73971.22
2023-05-01T07:11:57.715Z,74036.44
2023-05-01T07:13:34.799Z,74046.31
2023-05-01T07:15:11.474Z,73991.00
2023-05-01T07:16:45.058Z,73989.00
2023-05-01T07:18:18.772Z,73955.41
2023-05-01T07:19:55.722Z,73945.53
2023-05-01T07:21:29.270Z,73876.38
2023-05-01T07:23:03.843Z,73868.47
2023-05-01T07:24:40.799Z,73882.31
2023-05-01T07:26:16.376Z,73973.19
2023-05-01T07:27:53.835Z,73949.50
2023-05-01T07:29:27.662Z,73951.47
2023-05-01T07:31:02.539Z,73979.13
2023-05-01T07:32:39.917Z,73927.75
2023-05-01T07:34:21.855Z,73955.41
2023-05-01T07:36:08.760Z,73923.78
2023-05-01T07:37:42.083Z,73939.59
2023-05-01T07:39:15.360Z,73989.00
2023-05-01T07:40:49.100Z,73994.94
2023-05-01T07:42:25.947Z,73975.19
2023-05-01T07:44:00.314Z,74016.69
2023-05-01T07:45:33.728Z,74002.84
2023-05-01T07:47:09.690Z,73969.25
2023-05-01T07:48:43.057Z,73987.03
2023-05-01T07:50:17.563Z,73919.84
2023-05-01T07:51:53.502Z,73919.84
2023-05-01T07:53:30.669Z,73908.00
2023-05-01T07:55:05.527Z,73862.53
2023-05-01T07:56:40.361Z,73825.00
2023-05-01T07:58:14.122Z,73906.00
2023-05-01T07:59:47.349Z,73870.44
2023-05-01T08:01:21.448Z,73896.13
2023-05-01T08:02:54.922Z,73840.81
2023-05-01T08:04:29.165Z,73842.78
2023-05-01T08:06:05.764Z,73896.13
2023-05-01T08:07:38.972Z,73975.19
2023-05-01T08:09:12.597Z,73961.34
2023-05-01T08:10:45.551Z,73868.47
2023-05-01T08:12:19.250Z,73955.41
2023-05-01T08:13:52.171Z,73987.03
2023-05-01T08:15:25.195Z,73965.28
2023-05-01T08:16:58.884Z,73927.75
2023-05-01T08:18:32.089Z,73935.66
2023-05-01T08:20:05.482Z,73945.53
2023-05-01T08:21:38.677Z,73872.41
2023-05-01T08:23:11.673Z,73854.63
2023-05-01T08:24:44.933Z,73882.31
2023-05-01T08:26:18.223Z,73908.00
2023-05-01T08:27:51.992Z,73880.31
2023-05-01T08:29:24.852Z,73904.03
2023-05-01T08:30:58.043Z,73868.47
2023-05-01T08:32:31.348Z,73844.75
2023-05-01T08:34:04.874Z,73821.03
2023-05-01T08:35:37.806Z,73906.00
2023-05-01T08:37:11.102Z,73919.84
2023-05-01T08:38:44.233Z,73836.84
2023-05-01T08:40:18.297Z,73872.41
2023-05-01T08:41:52.968Z,73852.66
2023-05-01T08:43:27.358Z,73876.38
2023-05-01T08:45:01.794Z,73870.44
2023-05-01T08:47:03.113Z,73793.38
2023-05-01T08:48:37.560Z,73757.81
2023-05-01T08:50:18.585Z,73779.53
2023-05-01T08:51:54.484Z,73734.09
2023-05-01T08:53:32.331Z,73777.56
2023-05-01T08:55:09.046Z,73791.41
2023-05-01T08:56:47.568Z,73773.63
2023-05-01T08:58:25.196Z,73732.13
2023-05-01T09:00:00.570Z,73785.47
2023-05-01T09:01:34.669Z,73817.09
2023-05-01T09:03:12.245Z,73738.06
2023-05-01T09:04:47.597Z,73791.41
2023-05-01T09:06:22.178Z,73789.44
2023-05-01T09:07:56.796Z,73745.94
2023-05-01T09:09:31.204Z,73789.44
2023-05-01T09:11:07.403Z,73747.94
2023-05-01T09:12:42.593Z,73783.50
2023-05-01T09:14:16.630Z,73821.03
2023-05-01T09:15:49.807Z,73801.28
2023-05-01T09:17:24.568Z,73761.75
2023-05-01T09:18:59.685Z,73860.56
2023-05-01T09:20:34.131Z,73805.22
2023-05-01T09:22:08.163Z,73854.63
2023-05-01T09:23:41.525Z,73825.00
2023-05-01T09:25:14.508Z,73769.66
2023-05-01T09:26:48.131Z,73734.09
2023-05-01T09:28:41.926Z,73710.38
2023-05-01T09:30:35.683Z,73803.25
2023-05-01T09:32:16.710Z,73819.06
2023-05-01T09:33:58.588Z,73821.03
2023-05-01T09:35:33.100Z,73819.06
2023-05-01T09:37:06.775Z,73777.56
2023-05-01T09:38:44.163Z,73734.09
2023-05-01T09:40:17.005Z,73809.19
2023-05-01T09:41:53.462Z,73828.94
2023-05-01T09:43:31.160Z,73765.72
2023-05-01T09:45:06.272Z,73749.91
2023-05-01T09:46:44.178Z,73779.53
2023-05-01T09:48:17.204Z,73726.19
2023-05-01T09:49:50.321Z,73716.31
2023-05-01T09:51:31.098Z,73738.06
2023-05-01T09:53:06.889Z,73771.66
2023-05-01T09:54:39.740Z,73722.25
2023-05-01T09:56:12.662Z,73738.06
2023-05-01T09:57:47.409Z,73742.00
2023-05-01T09:59:21.435Z,73811.16
2023-05-01T10:00:54.614Z,73781.53
2023-05-01T10:02:31.123Z,73765.72
2023-05-01T10:04:04.673Z,73745.94
2023-05-01T10:05:47.228Z,73682.72
2023-05-01T10:07:20.255Z,73661.00
2023-05-01T10:08:53.117Z,73631.34
2023-05-01T10:10:26.586Z,73627.41
2023-05-01T10:12:00.802Z,73643.19
2023-05-01T10:13:33.754Z,73712.38
2023-05-01T10:15:21.066Z,73659.00
2023-05-01T10:16:58.500Z,73666.91
2023-05-01T10:18:32.911Z,73635.31
2023-05-01T10:20:08.625Z,73643.19
2023-05-01T10:21:41.764Z,73635.31
2023-05-01T10:23:15.085Z,73668.88
2023-05-01T10:24:48.011Z,73730.16
2023-05-01T10:26:21.143Z,73674.81
2023-05-01T10:27:54.484Z,73690.63
2023-05-01T10:29:30.567Z,73690.63
2023-05-01T10:31:04.255Z,73664.94
2023-05-01T10:32:39.237Z,73637.28
2023-05-01T10:34:20.061Z,73615.53
2023-05-01T10:35:57.897Z,73637.28
2023-05-01T10:37:44.151Z,73649.13
2023-05-01T10:39:36.520Z,73678.78
2023-05-01T10:41:10.419Z,73635.31
2023-05-01T10:43:28.995Z,73611.59
2023-05-01T10:45:31.302Z,73625.41
2023-05-01T10:47:23.660Z,73595.78
2023-05-01T10:48:57.345Z,73655.06
2023-05-01T10:50:30.494Z,73700.50
2023-05-01T10:52:04.212Z,73728.16
2023-05-01T10:53:38.355Z,73734.09
2023-05-01T10:55:45.322Z,73791.41
2023-05-01T10:57:45.056Z,73698.53
2023-05-01T10:59:18.468Z,73661.00
2023-05-01T11:01:30.532Z,73639.25
2023-05-01T11:03:22.672Z,73664.94
2023-05-01T11:04:57.593Z,73657.03
2023-05-01T11:06:32.674Z,73627.41
2023-05-01T11:08:34.398Z,73609.63
2023-05-01T11:10:26.649Z,73629.38
2023-05-01T11:11:59.647Z,73631.34
2023-05-01T11:13:57.727Z,73635.31
2023-05-01T11:15:34.186Z,73621.47
2023-05-01T11:17:07.090Z,73607.63
2023-05-01T11:18:46.761Z,73615.53
2023-05-01T11:20:25.887Z,73635.31
2023-05-01T11:21:59.460Z,73680.75
2023-05-01T11:23:33.027Z,73710.38
2023-05-01T11:25:20.887Z,73688.66
2023-05-01T11:26:54.036Z,73724.22
2023-05-01T11:28:27.187Z,73716.31
2023-05-01T11:30:00.567Z,73680.75
2023-05-01T11:31:33.868Z,73664.94
2023-05-01T11:33:10.085Z,73643.19
2023-05-01T11:34:44.668Z,73674.81
2023-05-01T11:36:17.754Z,73700.50
2023-05-01T11:37:51.718Z,73747.94
2023-05-01T11:39:24.629Z,73757.81
2023-05-01T11:41:00.813Z,73743.97
2023-05-01T11:42:33.861Z,73706.44
2023-05-01T11:44:06.931Z,73670.88
2023-05-01T11:45:39.857Z,73645.19
2023-05-01T11:47:13.235Z,73668.88
2023-05-01T11:48:51.602Z,73643.19
2023-05-01T11:50:39.060Z,73694.59
2023-05-01T11:52:13.023Z,73745.94
2023-05-01T11:54:03.753Z,73749.91
2023-05-01T11:55:36.579Z,73734.09
2023-05-01T11:57:09.446Z,73732.13
2023-05-01T11:58:43.582Z,73749.91
2023-05-01T12:00:27.633Z,73745.94
2023-05-01T12:02:00.550Z,73769.66
2023-05-01T12:03:42.912Z,73745.94
2023-05-01T12:05:17.520Z,73781.53
2023-05-01T12:06:50.586Z,73740.03
2023-05-01T12:08:24.718Z,73761.75
2023-05-01T12:09:58.263Z,73730.16
2023-05-01T12:11:32.935Z,73706.44
2023-05-01T12:13:07.557Z,73718.28
2023-05-01T12:14:40.960Z,73726.19
2023-05-01T12:16:14.119Z,73755.84
2023-05-01T12:17:48.623Z,73749.91
2023-05-01T12:19:23.934Z,73722.25
2023-05-01T12:20:57.468Z,73712.38
2023-05-01T12:22:36.100Z,73708.41
2023-05-01T12:24:16.371Z,73710.38
2023-05-01T12:25:49.756Z,73726.19
2023-05-01T12:27:22.854Z,73716.31
2023-05-01T12:29:03.780Z,73730.16
2023-05-01T12:30:37.424Z,73751.88
2023-05-01T12:32:11.108Z,73738.06
2023-05-01T12:33:53.874Z,73726.19
2023-05-01T12:35:31.067Z,73716.31
2023-05-01T12:37:05.335Z,73726.19
2023-05-01T12:38:38.818Z,73726.19
2023-05-01T12:40:15.607Z,73740.03
2023-05-01T12:41:49.841Z,73730.16
2023-05-01T12:43:31.777Z,73730.16
2023-05-01T12:45:06.113Z,73730.16
2023-05-01T12:46:39.871Z,73728.16
2023-05-01T12:48:15.178Z,73759.78
2023-05-01T12:49:48.239Z,73773.63
2023-05-01T12:51:21.749Z,73749.91
2023-05-01T12:52:54.714Z,73743.97
2023-05-01T12:54:30.157Z,73749.91
2023-05-01T12:56:03.745Z,73765.72
2023-05-01T12:57:37.111Z,73773.63
2023-05-01T12:59:24.564Z,73773.63
2023-05-01T13:00:57.747Z,73783.50
2023-05-01T13:02:33.152Z,73797.34
2023-05-01T13:04:06.647Z,73793.38
2023-05-01T13:06:00.743Z,73769.66
2023-05-01T13:07:35.400Z,73779.53
2023-05-01T13:09:11.609Z,73785.47
2023-05-01T13:10:44.997Z,73809.19
2023-05-01T13:12:17.873Z,73787.44
2023-05-01T13:13:50.904Z,73807.22
2023-05-01T13:15:24.319Z,73803.25
2023-05-01T13:16:57.608Z,73805.22
2023-05-01T13:18:31.939Z,73811.16
2023-05-01T13:20:05.985Z,73817.09
2023-05-01T13:21:49.437Z,73811.16
2023-05-01T13:23:22.448Z,73805.22
2023-05-01T13:24:55.531Z,73832.91
2023-05-01T13:26:35.477Z,73813.13
2023-05-01T13:28:09.737Z,73813.13
2023-05-01T13:29:42.700Z,73825.00
2023-05-01T13:31:15.709Z,73828.94
2023-05-01T13:32:49.894Z,73815.13
2023-05-01T13:34:29.656Z,73809.19
2023-05-01T13:36:08.626Z,73830.94
2023-05-01T13:37:52.044Z,73844.75
2023-05-01T13:39:25.548Z,73874.41
2023-05-01T13:40:58.613Z,73850.69
2023-05-01T13:42:32.407Z,73858.59
2023-05-01T13:44:07.219Z,73852.66
2023-05-01T13:45:40.654Z,73856.63
2023-05-01T13:47:18.086Z,73852.66
2023-05-01T13:48:51.177Z,73858.59
2023-05-01T13:50:24.240Z,73872.41
2023-05-01T13:51:58.277Z,73866.50
2023-05-01T13:53:31.690Z,73874.41
2023-05-01T13:55:07.621Z,73876.38
2023-05-01T13:56:41.642Z,73880.31
2023-05-01T13:58:14.640Z,73876.38
2023-05-01T13:59:48.634Z,73892.19
2023-05-01T14:01:23.706Z,73886.25
2023-05-01T14:02:59.943Z,73884.28
2023-05-01T14:04:35.882Z,73892.19
2023-05-01T14:06:20.019Z,73915.91
2023-05-01T14:07:57.929Z,73917.88
2023-05-01T14:09:35.986Z,73929.72
2023-05-01T14:11:10.401Z,73925.78
2023-05-01T14:12:43.361Z,73931.69
2023-05-01T14:14:17.906Z,73935.66
2023-05-01T14:15:51.098Z,73943.56
2023-05-01T14:17:42.111Z,73951.47
2023-05-01T14:19:18.965Z,73961.34
2023-05-01T14:20:52.257Z,73969.25
2023-05-01T14:22:29.528Z,73971.22
2023-05-01T14:24:03.454Z,73981.09
2023-05-01T14:25:37.289Z,73992.97
2023-05-01T14:27:10.836Z,73991.00
2023-05-01T14:28:44.985Z,73994.94
2023-05-01T14:30:27.839Z,73998.88
2023-05-01T14:32:04.668Z,74012.72
2023-05-01T14:33:43.924Z,74018.66
2023-05-01T14:35:18.586Z,74022.59
2023-05-01T14:36:51.779Z,74032.47
2023-05-01T14:38:26.785Z,74040.38
2023-05-01T14:40:01.399Z,74050.28
2023-05-01T14:41:39.121Z,74056.19
2023-05-01T14:43:17.429Z,74066.06
2023-05-01T14:44:50.390Z,74075.97
2023-05-01T14:46:34.634Z,74085.84
2023-05-01T14:48:07.750Z,74101.66
2023-05-01T14:49:42.863Z,74107.56
2023-05-01T14:51:20.021Z,74109.56
2023-05-01T14:53:00.521Z,74117.47
2023-05-01T14:54:36.797Z,74129.31
2023-05-01T14:56:10.244Z,74145.13
2023-05-01T14:57:45.472Z,74153.03
2023-05-01T14:59:18.640Z,74168.84
2023-05-01T15:00:51.697Z,74176.75
2023-05-01T15:02:24.908Z,74196.50
2023-05-01T15:03:59.901Z,74198.47
2023-05-01T15:05:34.615Z,74192.56
2023-05-01T15:07:07.842Z,74212.31
2023-05-01T15:08:40.898Z,74220.22
2023-05-01T15:10:14.286Z,74243.94
2023-05-01T15:11:47.569Z,74239.97
2023-05-01T15:13:21.507Z,74251.84
2023-05-01T15:14:54.401Z,74263.69
2023-05-01T15:16:28.082Z,74271.59
2023-05-01T15:18:02.653Z,74277.53
2023-05-01T15:19:35.707Z,74291.38
2023-05-01T15:21:08.973Z,74297.28
2023-05-01T15:22:41.980Z,74309.16
2023-05-01T15:24:15.072Z,74315.09
2023-05-01T15:25:50.968Z,74330.88
2023-05-01T15:27:23.875Z,74344.72
2023-05-01T15:28:57.098Z,74358.56
2023-05-01T15:30:30.545Z,74370.41
2023-05-01T15:32:11.991Z,74378.31
2023-05-01T15:33:46.551Z,74390.19
2023-05-01T15:35:19.682Z,74409.94
2023-05-01T15:36:52.857Z,74429.72
2023-05-01T15:38:26.446Z,74443.53
2023-05-01T15:40:00.112Z,74449.47
2023-05-01T15:41:33.353Z,74461.31
2023-05-01T15:43:06.936Z,74473.19
2023-05-01T15:44:39.956Z,74473.19
2023-05-01T15:46:13.008Z,74492.94
2023-05-01T15:47:46.643Z,74496.91
2023-05-01T15:49:20.320Z,74502.84
2023-05-01T15:50:53.345Z,74514.69
2023-05-01T15:52:26.380Z,74528.53
2023-05-01T15:54:00.875Z,74526.53
2023-05-01T15:55:34.987Z,74532.47
2023-05-01T15:57:09.452Z,74534.44
2023-05-01T15:58:42.528Z,74532.47
2023-05-01T16:00:16.181Z,74530.50
2023-05-01T16:01:49.610Z,74532.47
2023-05-01T16:03:22.789Z,74540.38
2023-05-01T16:04:55.935Z,74558.16
2023-05-01T16:06:39.175Z,74564.09
2023-05-01T16:08:13.329Z,74556.19
2023-05-01T16:09:46.409Z,74568.06
2023-05-01T16:11:19.431Z,74595.72
2023-05-01T16:12:55.592Z,74583.88
2023-05-01T16:14:28.765Z,74603.63
2023-05-01T16:16:02.720Z,74607.59
2023-05-01T16:17:44.049Z,74609.56
2023-05-01T16:19:17.762Z,74621.41
2023-05-01T16:20:54.980Z,74621.41
2023-05-01T16:22:28.712Z,74631.28
2023-05-01T16:24:02.405Z,74627.34
2023-05-01T16:25:35.376Z,74631.28
2023-05-01T16:27:11.837Z,74635.25
2023-05-01T16:28:44.683Z,74643.16
2023-05-01T16:30:17.507Z,74647.09
2023-05-01T16:31:50.801Z,74657.00
2023-05-01T16:33:24.114Z,74666.88
2023-05-01T16:34:57.462Z,74660.94
2023-05-01T16:36:31.230Z,74660.94
2023-05-01T16:38:05.542Z,74666.88
2023-05-01T16:39:39.009Z,74672.81
2023-05-01T16:41:16.413Z,74682.69
2023-05-01T16:42:53.780Z,74686.63
2023-05-01T16:44:26.832Z,74698.50
2023-05-01T16:46:00.256Z,74704.44
2023-05-01T16:47:34.156Z,74710.34
2023-05-01T16:49:07.192Z,74706.41
2023-05-01T16:50:41.800Z,74698.50
2023-05-01T16:52:15.949Z,74698.50
2023-05-01T16:53:49.873Z,74716.28
2023-05-01T16:55:23.439Z,74718.25
2023-05-01T16:56:56.673Z,74726.16
2023-05-01T16:58:30.372Z,74759.75
2023-05-01T17:00:05.475Z,74734.06
2023-05-01T17:01:38.408Z,74749.88
2023-05-01T17:03:11.631Z,74759.75
2023-05-01T17:04:45.767Z,74761.75
2023-05-01T17:06:18.802Z,74761.75
2023-05-01T17:07:51.882Z,74777.56
2023-05-01T17:09:25.012Z,74781.50
2023-05-01T17:11:02.193Z,74797.31
2023-05-01T17:12:35.304Z,74793.38
2023-05-01T17:14:08.066Z,74805.22
2023-05-01T17:15:41.129Z,74821.03
2023-05-01T17:17:15.407Z,74840.81
2023-05-01T17:18:48.630Z,74836.84
2023-05-01T17:20:21.632Z,74844.75
2023-05-01T17:21:54.945Z,74856.63
2023-05-01T17:23:29.311Z,74860.56
2023-05-01T17:25:04.552Z,74864.53
2023-05-01T17:26:37.466Z,74874.41
2023-05-01T17:28:11.048Z,74890.22
2023-05-01T17:29:44.250Z,74900.09
2023-05-01T17:31:18.766Z,74898.13
2023-05-01T17:32:53.694Z,74919.88
2023-05-01T17:34:26.921Z,74902.06
2023-05-01T17:36:00.859Z,74915.91
2023-05-01T17:37:33.808Z,74911.97
2023-05-01T17:39:06.958Z,74915.91
2023-05-01T17:40:40.108Z,74909.97
2023-05-01T17:42:13.216Z,74919.88
2023-05-01T17:43:46.268Z,74933.69
2023-05-01T17:45:19.337Z,74939.63
2023-05-01T17:46:52.350Z,74939.63
2023-05-01T17:48:25.266Z,74939.63
2023-05-01T17:50:04.037Z,74945.56
2023-05-01T17:51:37.694Z,74955.44
2023-05-01T17:53:11.188Z,74963.34
2023-05-01T17:54:44.777Z,74975.22
2023-05-01T17:56:18.678Z,74971.25
2023-05-01T17:57:52.661Z,74983.13
2023-05-01T17:59:31.833Z,74989.03
2023-05-01T18:01:05.103Z,74993.00
2023-05-01T18:02:39.508Z,75008.81
2023-05-01T18:04:12.799Z,75004.84
2023-05-01T18:05:46.961Z,75018.69
2023-05-01T18:07:21.234Z,75022.66
2023-05-01T18:08:56.353Z,75030.56
2023-05-01T18:10:31.403Z,75030.56
2023-05-01T18:12:04.654Z,75032.53
2023-05-01T18:13:40.064Z,75024.63
2023-05-01T18:15:15.802Z,75018.69
2023-05-01T18:16:53.062Z,75022.66
2023-05-01T18:18:26.325Z,75020.66
2023-05-01T18:19:59.879Z,75014.75
2023-05-01T18:21:33.236Z,75022.66
2023-05-01T18:23:07.116Z,75030.56
2023-05-01T18:24:41.497Z,75032.53
2023-05-01T18:26:14.590Z,75034.50
2023-05-01T18:27:47.470Z,75032.53
2023-05-01T18:29:20.334Z,75026.59
2023-05-01T18:30:53.098Z,75030.56
2023-05-01T18:32:39.326Z,75020.66
2023-05-01T18:34:19.825Z,75034.50
2023-05-01T18:35:53.844Z,75030.56
2023-05-01T18:37:26.741Z,75036.47
2023-05-01T18:39:02.197Z,75042.41
2023-05-01T18:40:35.595Z,75068.09
2023-05-01T18:42:10.539Z,75068.09
2023-05-01T18:43:43.539Z,75074.03
2023-05-01T18:45:16.914Z,75081.94
2023-05-01T18:46:49.783Z,75099.75
2023-05-01T18:48:23.718Z,75101.72